Time;durP1;ratioP1;P1;durP2;ratioP2;P2;SDS_P1;SDS_P2;PMS_P1;PMS_P2;Temp;Humidity;BMP_temperature;BMP_pressure;BME280_temperature;BME280_humidity;BME280_pressure;Samples;Min_cycle;Max_cycle;Signal;HPM_P1;HPM_P2
2023/10/21 00:02:09;;;;;;;87.57;84.38;;;;;;;20.80;62.44;96069.38;4979776;28;104095;-70
2023/10/21 00:04:37;;;;;;;92.15;88.85;;;;;;;21.06;61.45;96068.84;5004504;28;103862;-70
2023/10/21 00:07:05;;;;;;;100.43;96.82;;;;;;;21.30;61.07;96070.44;5002735;28;102674;-70
2023/10/21 00:09:33;;;;;;;84.77;81.67;;;;;;;20.90;62.15;96068.78;4999446;28;104234;-70
2023/10/21 00:12:01;;;;;;;87.28;84.07;;;;;;;21.06;62.10;96082.25;4980113;28;104387;-70
2023/10/21 00:14:30;;;;;;;98.93;95.35;;;;;;;20.94;61.28;96062.69;4999842;28;103205;-70
2023/10/21 00:16:59;;;;;;;96.20;92.80;;;;;;;20.00;64.58;96069.22;4981453;28;102807;-70
2023/10/21 00:19:27;;;;;;;122.37;118.07;;;;;;;20.66;62.84;96081.47;4997495;28;103049;-70
2023/10/21 00:21:55;;;;;;;128.43;123.93;;;;;;;20.59;62.71;96094.16;4998247;28;103204;-70
2023/10/21 00:24:25;;;;;;;122.82;118.53;;;;;;;20.70;61.85;96096.84;4999332;28;103282;-70
2023/10/21 00:26:52;;;;;;;121.63;117.32;;;;;;;20.96;61.38;96098.19;4999750;28;102740;-70
2023/10/21 00:29:21;;;;;;;97.50;93.95;;;;;;;20.59;63.03;96111.09;4970768;28;103687;-70
2023/10/21 00:31:49;;;;;;;115.32;111.20;;;;;;;20.54;62.96;96107.47;4976171;28;104382;-70
2023/10/21 00:34:18;;;;;;;130.32;125.75;;;;;;;20.69;62.43;96113.16;5010859;28;103201;-69
2023/10/21 00:36:46;;;;;;;132.88;128.13;;;;;;;20.77;62.02;96107.44;4976958;28;102670;-70
2023/10/21 00:39:14;;;;;;;127.20;122.63;;;;;;;20.70;61.93;96104.06;4996218;28;104846;-70
2023/10/21 00:41:43;;;;;;;138.63;133.80;;;;;;;20.72;62.00;96099.25;4975963;28;104402;-70
2023/10/21 00:44:11;;;;;;;141.20;136.23;;;;;;;20.71;62.10;96103.03;4995776;28;103315;-69
2023/10/21 00:46:42;;;;;;;147.70;142.45;;;;;;;20.26;63.25;96120.78;4972814;28;102836;-69
2023/10/21 00:49:10;;;;;;;131.60;126.88;;;;;;;20.92;61.25;96115.78;4992230;28;102904;-69
2023/10/21 00:51:41;;;;;;;135.70;130.93;;;;;;;20.42;63.13;96125.44;4977952;28;104215;-69
2023/10/21 00:54:12;;;;;;;134.50;129.80;;;;;;;20.70;61.79;96125.50;4990907;28;103205;-70
2023/10/21 00:56:41;;;;;;;139.07;134.13;;;;;;;21.29;60.11;96133.22;4974348;28;103117;-70
2023/10/21 00:59:11;;;;;;;143.50;138.50;;;;;;;21.48;59.20;96122.28;4974687;28;103545;-70
2023/10/21 01:01:39;;;;;;;132.55;127.72;;;;;;;20.96;60.96;96134.91;4974292;28;104430;-70
2023/10/21 01:04:08;;;;;;;127.72;123.28;;;;;;;21.11;60.83;96130.69;4978822;28;104388;-70
2023/10/21 01:06:41;;;;;;;118.40;114.25;;;;;;;20.71;61.85;96145.94;4973136;28;102801;-70
2023/10/21 01:09:10;;;;;;;118.47;114.28;;;;;;;20.63;62.61;96148.97;4985903;28;102911;-70
2023/10/21 01:11:38;;;;;;;141.02;136.13;;;;;;;21.39;59.94;96146.81;4995368;28;103426;-70
2023/10/21 01:14:09;;;;;;;127.20;122.72;;;;;;;21.10;60.91;96155.94;4976057;28;103534;-69
2023/10/21 01:16:36;;;;;;;118.75;114.65;;;;;;;20.24;63.76;96166.53;4986992;28;103047;-70
2023/10/21 01:19:06;;;;;;;131.70;127.03;;;;;;;20.68;62.67;96171.38;4984670;28;103983;-70
2023/10/21 01:21:36;;;;;;;132.90;128.20;;;;;;;20.93;61.48;96175.63;4977746;28;103212;-69
2023/10/21 01:24:06;;;;;;;138.17;133.33;;;;;;;21.19;60.69;96184.00;4988642;28;104115;-70
2023/10/21 01:26:35;;;;;;;132.20;127.57;;;;;;;20.64;62.21;96178.22;4974573;28;103157;-70
2023/10/21 01:29:09;;;;;;;128.27;123.73;;;;;;;21.28;60.51;96190.66;4989115;28;102827;-70
2023/10/21 01:31:37;;;;;;;124.93;120.50;;;;;;;21.19;60.53;96202.00;4993795;28;104359;-70
2023/10/21 01:34:05;;;;;;;132.20;127.57;;;;;;;21.38;60.34;96212.34;4994190;28;103756;-70
2023/10/21 01:36:33;;;;;;;129.73;125.13;;;;;;;21.34;59.94;96215.72;4994252;28;102975;-70
2023/10/21 01:39:01;;;;;;;141.13;136.13;;;;;;;20.95;60.70;96221.84;4991442;28;103288;-70
2023/10/21 01:41:30;;;;;;;140.73;135.88;;;;;;;21.48;59.46;96222.47;4990334;28;103485;-70
2023/10/21 01:43:58;;;;;;;146.10;141.00;;;;;;;21.52;59.28;96234.38;4969989;28;103375;-70
2023/10/21 01:46:26;;;;;;;128.18;123.63;;;;;;;21.12;60.99;96228.97;4979549;28;102732;-69
2023/10/21 01:48:54;;;;;;;143.15;138.18;;;;;;;21.48;59.21;96227.84;4976017;28;103316;-69
2023/10/21 01:51:22;;;;;;;150.13;144.90;;;;;;;21.49;58.84;96232.16;4977522;28;104493;-70
2023/10/21 01:53:50;;;;;;;148.55;143.32;;;;;;;21.52;58.34;96241.59;4980961;28;103335;-70
2023/10/21 01:56:18;;;;;;;149.30;144.07;;;;;;;21.59;59.06;96243.09;4989277;28;102575;-70
2023/10/21 01:58:47;;;;;;;128.60;124.10;;;;;;;21.64;58.93;96245.09;4973129;28;104430;-70
2023/10/21 02:01:15;;;;;;;151.50;146.30;;;;;;;21.71;58.28;96254.63;4974719;28;104303;-70
2023/10/21 02:03:43;;;;;;;157.70;152.18;;;;;;;21.85;57.86;96265.91;4978901;28;104412;-70
2023/10/21 02:06:11;;;;;;;157.35;151.77;;;;;;;21.91;57.60;96273.03;4974724;28;102614;-69
2023/10/21 02:08:39;;;;;;;144.85;139.85;;;;;;;21.84;57.64;96289.25;4984880;28;102989;-70
2023/10/21 02:11:10;;;;;;;162.52;156.93;;;;;;;21.91;57.33;96281.94;4975832;28;104998;-70
2023/10/21 02:13:37;;;;;;;161.20;155.63;;;;;;;22.22;56.67;96285.19;4976364;28;103838;-70
2023/10/21 02:16:11;;;;;;;144.48;139.48;;;;;;;21.58;58.45;96292.53;5014662;28;102714;-70
2023/10/21 02:18:39;;;;;;;151.63;146.30;;;;;;;21.52;58.31;96303.38;4993454;28;102638;-70
2023/10/21 02:21:07;;;;;;;165.10;159.38;;;;;;;21.80;57.31;96306.13;4973231;28;104172;-64
2023/10/21 02:23:35;;;;;;;164.63;158.93;;;;;;;21.65;57.60;96308.47;4988231;28;103285;-65
2023/10/21 02:26:04;;;;;;;167.73;162.02;;;;;;;21.88;56.75;96319.22;4982812;28;102683;-64
2023/10/21 02:28:32;;;;;;;149.77;144.57;;;;;;;21.93;57.14;96324.69;4979804;28;104587;-64
2023/10/21 02:31:03;;;;;;;154.20;148.80;;;;;;;21.69;57.46;96326.59;4971346;28;104449;-64
2023/10/21 02:33:32;;;;;;;153.10;147.77;;;;;;;21.15;58.83;96329.69;4976677;28;104215;-64
2023/10/21 02:36:00;;;;;;;159.13;153.63;;;;;;;21.85;56.98;96333.09;4977207;28;103199;-63
2023/10/21 02:38:29;;;;;;;163.43;157.73;;;;;;;21.72;57.42;96341.41;4979961;28;103113;-64
2023/10/21 02:40:56;;;;;;;148.32;143.23;;;;;;;21.17;59.01;96341.00;5005909;28;104175;-63
2023/10/21 02:43:24;;;;;;;169.68;163.88;;;;;;;22.01;56.72;96342.31;4976502;28;103493;-64
2023/10/21 02:45:52;;;;;;;175.93;169.97;;;;;;;22.22;55.68;96350.53;5003182;28;102805;-63
2023/10/21 02:48:20;;;;;;;159.30;153.75;;;;;;;22.12;56.11;96353.00;4978006;28;102987;-64
2023/10/21 02:50:50;;;;;;;154.40;149.02;;;;;;;22.14;55.96;96356.28;4972227;28;103985;-63
2023/10/21 02:53:18;;;;;;;137.20;132.37;;;;;;;21.66;57.45;96355.78;4977948;28;104499;-64
2023/10/21 02:55:46;;;;;;;132.75;128.07;;;;;;;21.71;57.87;96366.66;4973656;28;102839;-64
2023/10/21 02:58:14;;;;;;;157.00;151.50;;;;;;;21.69;56.99;96363.38;4996512;28;104119;-64
2023/10/21 03:00:42;;;;;;;130.00;125.38;;;;;;;21.65;57.54;96367.59;4992286;28;103940;-63
2023/10/21 03:03:10;;;;;;;105.60;101.80;;;;;;;21.64;58.17;96371.34;4979169;28;104238;-64
2023/10/21 03:05:40;;;;;;;140.77;135.80;;;;;;;21.76;57.38;96386.38;4973235;28;103361;-64
2023/10/21 03:08:09;;;;;;;147.15;141.98;;;;;;;22.13;56.65;96386.91;4979845;28;104575;-64
2023/10/21 03:10:37;;;;;;;138.68;133.82;;;;;;;21.84;57.28;96393.25;4987917;28;103823;-63
2023/10/21 03:13:06;;;;;;;138.20;133.40;;;;;;;21.81;56.94;96394.53;4975427;28;104240;-64
2023/10/21 03:15:34;;;;;;;145.77;140.70;;;;;;;21.78;56.91;96394.22;4978581;28;102808;-64
2023/10/21 03:18:02;;;;;;;145.27;140.27;;;;;;;21.97;56.37;96393.03;4998469;28;103728;-63
2023/10/21 03:20:32;;;;;;;152.23;146.97;;;;;;;22.02;56.43;96401.19;4973798;28;104734;-64
2023/10/21 03:23:00;;;;;;;139.20;134.30;;;;;;;21.86;56.11;96402.72;4974954;28;104356;-64
2023/10/21 03:25:30;;;;;;;133.88;129.23;;;;;;;21.70;57.49;96411.50;4998989;28;102731;-64
2023/10/21 03:27:58;;;;;;;138.52;133.65;;;;;;;21.54;57.50;96414.91;4989857;28;102780;-64
2023/10/21 03:30:26;;;;;;;127.72;123.30;;;;;;;21.48;57.59;96409.63;4981680;28;104237;-64
2023/10/21 03:32:54;;;;;;;125.70;121.28;;;;;;;21.49;57.84;96422.84;4973056;28;103446;-64
2023/10/21 03:35:22;;;;;;;127.45;123.00;;;;;;;21.42;58.14;96421.34;4995545;28;102621;-65
2023/10/21 03:37:49;;;;;;;126.25;121.78;;;;;;;21.23;58.29;96432.16;4991973;28;102779;-64
2023/10/21 03:40:18;;;;;;;130.90;126.32;;;;;;;21.20;58.33;96432.63;4979777;28;105891;-64
2023/10/21 03:42:47;;;;;;;128.90;124.40;;;;;;;20.83;59.77;96433.00;4974546;28;104114;-64
2023/10/21 03:45:15;;;;;;;142.32;137.43;;;;;;;21.37;58.57;96438.13;4997006;28;102806;-64
2023/10/21 03:47:43;;;;;;;143.35;138.25;;;;;;;21.91;56.33;96439.66;4997668;28;102721;-64
2023/10/21 03:50:11;;;;;;;138.75;133.93;;;;;;;21.59;57.48;96443.72;4994128;28;104144;-64
2023/10/21 03:52:40;;;;;;;138.93;134.05;;;;;;;21.81;57.05;96442.13;4972928;28;104397;-64
2023/10/21 03:55:09;;;;;;;151.00;145.63;;;;;;;21.55;56.93;96439.91;4991236;28;102732;-64
2023/10/21 03:57:37;;;;;;;120.28;115.88;;;;;;;21.45;57.42;96447.69;4996762;28;103632;-64
2023/10/21 04:00:08;;;;;;;118.93;114.63;;;;;;;21.61;57.63;96449.72;5002639;28;105190;-63
2023/10/21 04:02:39;;;;;;;125.70;121.30;;;;;;;21.69;57.42;96460.09;4997484;28;103400;-64
2023/10/21 04:05:08;;;;;;;134.30;129.55;;;;;;;21.91;56.64;96458.50;4994443;28;102596;-64
2023/10/21 04:07:36;;;;;;;140.80;135.85;;;;;;;21.95;56.37;96463.16;4998466;28;102819;-64
2023/10/21 04:10:04;;;;;;;154.67;149.27;;;;;;;21.79;56.43;96460.31;4979396;28;103371;-64
2023/10/21 04:12:32;;;;;;;138.47;133.67;;;;;;;21.68;56.89;96469.22;4991234;28;103215;-65
2023/10/21 04:15:00;;;;;;;119.63;115.43;;;;;;;21.50;57.39;96467.44;4972520;28;102683;-64
2023/10/21 04:17:29;;;;;;;135.38;130.52;;;;;;;21.83;56.94;96485.69;4977828;28;103783;-68
2023/10/21 04:19:57;;;;;;;137.70;132.80;;;;;;;21.79;56.72;96476.44;4997847;28;103130;-70
2023/10/21 04:22:25;;;;;;;151.60;146.32;;;;;;;21.88;56.41;96477.75;4975652;28;104244;-63
2023/10/21 04:24:52;;;;;;;138.88;134.05;;;;;;;21.99;56.08;96476.13;4975558;28;102805;-64
2023/10/21 04:27:20;;;;;;;148.25;142.98;;;;;;;22.09;55.78;96476.34;4989729;28;104064;-64
2023/10/21 04:29:50;;;;;;;122.70;118.38;;;;;;;21.34;57.97;96489.59;4994339;28;103287;-64
2023/10/21 04:32:18;;;;;;;123.37;119.07;;;;;;;21.55;57.84;96499.00;4988894;28;103222;-64
2023/10/21 04:34:47;;;;;;;147.13;141.93;;;;;;;21.97;56.26;96502.41;4989954;28;103045;-63
2023/10/21 04:37:15;;;;;;;148.13;142.97;;;;;;;21.99;55.93;96506.50;4994344;28;103997;-64
2023/10/21 04:39:43;;;;;;;163.23;157.57;;;;;;;22.22;55.32;96509.19;4971461;28;104481;-64
2023/10/21 04:42:11;;;;;;;171.80;165.85;;;;;;;22.41;54.71;96518.72;4992822;28;103204;-64
2023/10/21 04:44:39;;;;;;;147.30;142.18;;;;;;;22.03;55.37;96515.75;4986846;28;103171;-64
2023/10/21 04:47:07;;;;;;;152.48;147.10;;;;;;;22.25;55.48;96519.47;4988347;28;102661;-64
2023/10/21 04:49:35;;;;;;;133.20;128.53;;;;;;;21.54;56.84;96525.03;4996525;28;104639;-64
2023/10/21 04:52:04;;;;;;;130.98;126.32;;;;;;;21.63;57.50;96534.41;4992629;28;103917;-64
2023/10/21 04:54:32;;;;;;;149.20;144.00;;;;;;;21.86;56.47;96541.66;4982579;28;102785;-65
2023/10/21 04:57:00;;;;;;;154.75;149.35;;;;;;;22.17;55.66;96527.06;5000328;28;102632;-64
2023/10/21 04:59:28;;;;;;;134.55;129.85;;;;;;;22.05;55.87;96529.75;4974652;28;104160;-62
2023/10/21 05:01:56;;;;;;;155.70;150.30;;;;;;;22.31;55.24;96537.34;4994215;28;103147;-63
2023/10/21 05:04:25;;;;;;;135.07;130.37;;;;;;;21.99;56.31;96538.75;4993658;28;102812;-62
2023/10/21 05:06:53;;;;;;;123.00;118.70;;;;;;;21.82;56.42;96551.22;4996800;28;102611;-63
2023/10/21 05:09:22;;;;;;;130.07;125.47;;;;;;;22.07;56.32;96559.91;4996824;28;105594;-62
2023/10/21 05:11:50;;;;;;;128.43;123.93;;;;;;;21.85;56.93;96562.34;4983135;28;103300;-63
2023/10/21 05:14:18;;;;;;;103.30;99.68;;;;;;;21.51;57.95;96564.97;4997210;28;102732;-63
2023/10/21 05:16:46;;;;;;;148.95;143.85;;;;;;;22.10;56.29;96572.88;4998577;28;103999;-63
2023/10/21 05:19:16;;;;;;;121.57;117.22;;;;;;;22.04;56.60;96576.50;4990135;28;104096;-63
2023/10/21 05:21:45;;;;;;;139.50;134.63;;;;;;;22.23;56.14;96585.28;4986238;28;103361;-63
2023/10/21 05:24:13;;;;;;;143.30;138.27;;;;;;;22.13;56.22;96583.19;4993920;28;102714;-63
2023/10/21 05:26:42;;;;;;;149.73;144.52;;;;;;;22.10;56.50;96589.03;4981066;28;103736;-63
2023/10/21 05:29:12;;;;;;;135.68;130.93;;;;;;;21.97;56.52;96597.31;4992170;28;105202;-63
2023/10/21 05:31:40;;;;;;;120.82;116.57;;;;;;;21.96;57.30;96601.03;4996410;28;103290;-63
2023/10/21 05:34:08;;;;;;;144.82;139.77;;;;;;;22.15;56.58;96610.63;4993652;28;102818;-70
2023/10/21 05:36:36;;;;;;;112.60;108.67;;;;;;;21.41;58.54;96623.78;4994621;28;103921;-63
2023/10/21 05:39:05;;;;;;;145.50;140.40;;;;;;;22.05;57.07;96621.16;4988833;28;103536;-63
2023/10/21 05:41:33;;;;;;;157.50;152.10;;;;;;;22.31;56.49;96631.47;4989513;28;103261;-63
2023/10/21 05:44:03;;;;;;;129.75;125.25;;;;;;;21.98;57.08;96631.19;4991771;28;102736;-62
2023/10/21 05:46:31;;;;;;;123.75;119.43;;;;;;;22.14;57.02;96635.91;5000045;28;103873;-62
2023/10/21 05:49:03;;;;;;;120.43;116.13;;;;;;;21.87;57.35;96640.06;4981004;28;103867;-63
2023/10/21 05:51:33;;;;;;;133.13;128.43;;;;;;;22.14;57.19;96643.97;4992631;28;103009;-62
2023/10/21 05:54:01;;;;;;;123.60;119.20;;;;;;;21.82;57.92;96658.72;4993220;28;102742;-69
2023/10/21 05:56:29;;;;;;;132.60;128.00;;;;;;;22.03;57.82;96655.53;4991716;28;103208;-71
2023/10/21 05:58:57;;;;;;;163.47;157.77;;;;;;;22.44;56.26;96657.31;4997209;28;104324;-70
2023/10/21 06:01:26;;;;;;;152.65;147.30;;;;;;;22.52;56.02;96663.16;4978033;28;104510;-62
2023/10/21 06:03:54;;;;;;;120.40;116.13;;;;;;;22.13;56.94;96669.22;4968807;28;102735;-70
2023/10/21 06:06:23;;;;;;;126.10;121.57;;;;;;;22.33;56.79;96675.09;4993143;27;102790;-69
2023/10/21 06:08:52;;;;;;;128.55;124.05;;;;;;;22.25;56.85;96680.81;4994209;28;103332;-69
2023/10/21 06:11:23;;;;;;;131.48;126.82;;;;;;;22.32;56.63;96686.88;4974505;28;104113;-69
2023/10/21 06:13:51;;;;;;;124.03;119.60;;;;;;;22.29;56.75;96686.53;4995125;28;103847;-63
2023/10/21 06:16:19;;;;;;;153.05;147.75;;;;;;;22.37;56.47;96688.91;4978974;28;103107;-63
2023/10/21 06:18:48;;;;;;;149.10;143.90;;;;;;;22.42;56.31;96692.53;4971213;28;104465;-62
2023/10/21 06:21:16;;;;;;;139.55;134.65;;;;;;;22.42;56.61;96703.28;4991797;28;103201;-62
2023/10/21 06:23:45;;;;;;;153.52;148.20;;;;;;;22.58;56.20;96709.00;4989154;28;102729;-63
2023/10/21 06:26:16;;;;;;;104.25;100.45;;;;;;;21.93;57.99;96725.97;4991094;28;103768;-62
2023/10/21 06:28:44;;;;;;;112.32;108.35;;;;;;;21.94;57.86;96724.94;4994105;28;104188;-62
2023/10/21 06:31:12;;;;;;;120.07;115.90;;;;;;;22.13;58.22;96724.84;4993515;28;103918;-69
2023/10/21 06:33:40;;;;;;;159.05;153.55;;;;;;;22.49;56.71;96725.50;4992356;28;102701;-62
2023/10/21 06:36:09;;;;;;;142.23;137.25;;;;;;;22.61;56.55;96738.13;4976713;28;104330;-69
2023/10/21 06:38:37;;;;;;;141.25;136.30;;;;;;;22.62;56.62;96734.41;4998377;28;103366;-70
2023/10/21 06:41:05;;;;;;;139.48;134.57;;;;;;;22.61;56.52;96738.13;4991161;28;103223;-69
2023/10/21 06:43:41;;;;;;;119.43;115.23;;;;;;;22.32;57.48;96756.81;4991046;28;104847;-62
2023/10/21 06:46:13;;;;;;;143.77;138.73;;;;;;;22.64;56.51;96754.69;4991983;28;102706;-62
2023/10/21 06:48:41;;;;;;;149.50;144.32;;;;;;;22.80;55.76;96755.84;4985651;28;103283;-62
2023/10/21 06:51:14;;;;;;;169.00;163.15;;;;;;;22.91;55.63;96755.00;4985266;28;103255;-70
2023/10/21 06:53:42;;;;;;;153.10;147.70;;;;;;;22.84;56.42;96773.19;4993620;28;102939;-63
2023/10/21 06:56:13;;;;;;;165.48;159.60;;;;;;;23.19;55.50;96779.34;4993135;28;102642;-62
2023/10/21 06:58:44;;;;;;;145.90;140.80;;;;;;;23.26;54.71;96780.06;4987416;28;103481;-68
2023/10/21 07:01:12;;;;;;;135.80;131.00;;;;;;;22.99;56.62;96784.28;4979314;28;104180;-62
2023/10/21 07:03:40;;;;;;;181.68;175.38;;;;;;;23.63;54.88;96786.78;4999277;28;102900;-62
2023/10/21 07:06:11;;;;;;;201.57;194.57;;;;;;;24.06;53.42;96796.25;5002825;28;103700;-67
2023/10/21 07:08:41;;;;;;;157.90;152.32;;;;;;;23.52;54.24;96795.72;4979288;28;102845;-69
2023/10/21 07:11:11;;;;;;;159.52;153.88;;;;;;;23.28;54.66;96799.50;4991222;28;103052;-67
2023/10/21 07:13:43;;;;;;;176.10;169.90;;;;;;;23.66;53.49;96801.69;5004737;28;103229;-62
2023/10/21 07:16:12;;;;;;;222.68;214.90;;;;;;;24.02;51.79;96812.13;4995780;28;103206;-62
2023/10/21 07:18:40;;;;;;;192.60;185.93;;;;;;;23.66;52.93;96818.66;4994309;28;105010;-63
2023/10/21 07:21:09;;;;;;;199.70;192.73;;;;;;;23.49;53.23;96828.56;4990127;28;103577;-69
2023/10/21 07:23:37;;;;;;;212.80;205.13;;;;;;;23.87;52.27;96819.91;4995028;28;102586;-69
2023/10/21 07:26:07;;;;;;;234.52;226.40;;;;;;;24.15;51.39;96819.13;5000121;28;103684;-63
2023/10/21 07:28:35;;;;;;;230.77;222.80;;;;;;;23.38;53.19;96818.59;4988012;28;104320;-62
2023/10/21 07:31:03;;;;;;;232.60;224.32;;;;;;;23.69;52.26;96827.34;4988101;28;102948;-62
2023/10/21 07:33:31;;;;;;;262.23;253.13;;;;;;;24.42;50.76;96822.84;4988850;28;102760;-68
2023/10/21 07:35:59;;;;;;;283.92;273.92;;;;;;;24.79;49.07;96829.47;4991044;28;102767;-68
2023/10/21 07:38:30;;;;;;;288.75;278.58;;;;;;;24.31;50.02;96839.13;4997578;28;103381;-68
2023/10/21 07:40:58;;;;;;;309.00;297.98;;;;;;;25.02;48.43;96849.28;4973854;28;104193;-68
2023/10/21 07:43:28;;;;;;;296.87;286.27;;;;;;;24.77;48.61;96853.16;4998987;28;103234;-63
2023/10/21 07:45:56;;;;;;;316.80;305.30;;;;;;;24.40;49.16;96862.75;4992764;28;103977;-62
2023/10/21 07:48:25;;;;;;;310.95;299.67;;;;;;;25.16;48.23;96866.78;4991699;28;103362;-63
2023/10/21 07:50:54;;;;;;;324.38;312.70;;;;;;;24.86;49.23;96874.41;4989273;28;103208;-68
2023/10/21 07:53:22;;;;;;;305.03;294.03;;;;;;;25.16;48.15;96874.88;4973176;28;102887;-68
2023/10/21 07:55:50;;;;;;;320.70;308.87;;;;;;;25.24;47.68;96880.69;4991713;28;104288;-68
2023/10/21 07:58:18;;;;;;;320.53;308.83;;;;;;;24.46;48.59;96885.25;4986055;28;104446;-63
2023/10/21 08:00:47;;;;;;;333.23;321.00;;;;;;;24.08;49.40;96896.63;4993437;28;103348;-63
2023/10/21 08:03:17;;;;;;;308.23;296.75;;;;;;;24.58;47.82;96900.34;4991486;28;102768;-63
2023/10/21 08:05:45;;;;;;;327.23;315.13;;;;;;;24.83;47.67;96893.78;4988509;28;102870;-68
2023/10/21 08:08:13;;;;;;;326.60;314.63;;;;;;;24.72;48.31;96903.56;4991892;28;103941;-63
2023/10/21 08:10:41;;;;;;;312.43;300.83;;;;;;;25.03;47.27;96904.94;4990752;28;103430;-69
2023/10/21 08:13:12;;;;;;;333.88;321.48;;;;;;;25.63;46.63;96908.59;4978336;28;103202;-68
2023/10/21 08:15:40;;;;;;;322.80;310.67;;;;;;;25.21;46.59;96919.00;4991880;28;102728;-63
2023/10/21 08:18:10;;;;;;;320.75;308.98;;;;;;;25.65;47.00;96917.31;4990475;28;103549;-69
2023/10/21 08:20:38;;;;;;;320.50;308.70;;;;;;;25.99;44.96;96909.09;4994246;28;103313;-69
2023/10/21 08:23:07;;;;;;;317.63;305.77;;;;;;;25.97;44.62;96913.94;4983711;28;102943;-69
2023/10/21 08:25:36;;;;;;;295.98;285.00;;;;;;;25.73;44.64;96927.69;4986815;28;104595;-69
2023/10/21 08:28:05;;;;;;;293.00;281.90;;;;;;;25.44;45.82;96926.13;4980720;28;104518;-69
2023/10/21 08:30:33;;;;;;;297.57;286.40;;;;;;;24.59;46.54;96934.38;4991080;28;102988;-69
2023/10/21 08:33:02;;;;;;;285.53;274.77;;;;;;;25.61;45.10;96940.50;4990720;28;103007;-69
2023/10/21 08:35:32;;;;;;;288.80;277.83;;;;;;;24.83;45.29;96937.00;4991966;28;102646;-64
2023/10/21 08:38:04;;;;;;;272.95;262.60;;;;;;;24.93;44.87;96937.16;4993762;28;103389;-69
2023/10/21 08:40:37;;;;;;;276.13;265.73;;;;;;;26.53;43.59;96935.22;4994648;28;103530;-69
2023/10/21 08:43:05;;;;;;;292.23;281.13;;;;;;;25.90;44.12;96950.13;4974600;28;103012;-69
2023/10/21 08:45:34;;;;;;;302.80;291.50;;;;;;;26.07;43.85;96943.84;4991053;28;103913;-69
2023/10/21 08:48:03;;;;;;;296.67;285.50;;;;;;;26.70;42.78;96944.09;4992342;28;103289;-69
2023/10/21 08:50:35;;;;;;;294.95;283.92;;;;;;;26.50;43.21;96954.69;4992833;28;104335;-70
2023/10/21 08:53:06;;;;;;;317.48;305.52;;;;;;;26.43;42.58;96957.59;4990864;28;102724;-69
2023/10/21 08:55:35;;;;;;;338.00;325.05;;;;;;;26.25;42.62;96960.59;4994060;28;103124;-69
2023/10/21 08:58:03;;;;;;;329.77;317.20;;;;;;;25.83;43.53;96960.28;4985815;28;103562;-69
2023/10/21 09:00:31;;;;;;;324.93;312.63;;;;;;;26.06;42.31;96971.94;4989987;28;103191;-69
2023/10/21 09:03:01;;;;;;;326.05;313.83;;;;;;;24.97;43.47;96968.03;4991155;28;102989;-69
2023/10/21 09:05:34;;;;;;;338.77;325.77;;;;;;;25.92;42.63;96966.91;4989399;28;102616;-70
2023/10/21 09:08:04;;;;;;;325.23;312.98;;;;;;;25.43;43.61;96970.47;4995159;28;103313;-69
2023/10/21 09:10:34;;;;;;;341.33;328.27;;;;;;;25.39;43.57;96982.81;4997467;28;103291;-70
2023/10/21 09:13:15;;;;;;;336.43;323.53;;;;;;;24.79;44.99;96990.63;4969173;28;102731;-69
2023/10/21 09:15:43;;;;;;;343.83;330.80;;;;;;;25.66;43.53;97002.75;4996308;28;103872;-69
2023/10/21 09:18:13;;;;;;;324.33;312.10;;;;;;;25.76;43.09;97000.22;4988580;28;103298;-70
2023/10/21 09:20:48;;;;;;;341.48;328.52;;;;;;;25.44;43.42;97015.34;4972701;28;104502;-69
2023/10/21 09:23:17;;;;;;;341.17;327.93;;;;;;;26.41;42.38;97015.78;4990477;28;102890;-70
2023/10/21 09:25:49;;;;;;;334.33;321.60;;;;;;;25.92;42.24;97022.88;4984056;28;104183;-69
2023/10/21 09:28:22;;;;;;;339.48;326.58;;;;;;;25.75;42.95;97028.31;4989841;28;103634;-69
2023/10/21 09:30:58;;;;;;;334.00;321.33;;;;;;;26.37;42.21;97026.28;4987756;28;104026;-70
2023/10/21 09:33:26;;;;;;;338.63;325.60;;;;;;;26.44;42.39;97026.09;4991262;28;102836;-70
2023/10/21 09:36:03;;;;;;;334.67;321.83;;;;;;;25.66;43.34;97024.38;4986934;28;103896;-69
2023/10/21 09:38:51;;;;;;;324.52;312.25;;;;;;;25.99;42.52;97025.44;4989420;28;103043;-70
2023/10/21 09:41:21;;;;;;;333.67;320.95;;;;;;;25.36;43.40;97023.84;4976343;28;104470;-70
2023/10/21 09:43:51;;;;;;;329.48;316.92;;;;;;;26.10;42.99;97030.75;4974372;28;102779;-69
2023/10/21 09:46:22;;;;;;;346.42;333.27;;;;;;;25.66;42.86;97027.06;4990990;28;104183;-70
2023/10/21 09:48:53;;;;;;;329.17;316.60;;;;;;;26.36;41.92;97019.22;4989641;28;103639;-64
2023/10/21 09:51:24;;;;;;;336.88;324.05;;;;;;;25.79;43.04;97021.34;4993533;28;103263;-64
2023/10/21 09:54:01;;;;;;;343.08;330.00;;;;;;;26.85;41.59;97028.25;4969633;28;103007;-64
2023/10/21 09:56:31;;;;;;;337.77;324.90;;;;;;;27.41;40.86;97028.84;4993444;28;103814;-70
2023/10/21 09:59:02;;;;;;;341.52;328.50;;;;;;;26.62;41.40;97031.19;5003577;28;103287;-70
2023/10/21 10:01:39;;;;;;;349.48;336.15;;;;;;;26.21;42.45;97034.44;4988095;28;103444;-70
2023/10/21 10:04:13;;;;;;;342.02;328.77;;;;;;;26.37;41.80;97037.09;4989873;28;102661;-69
2023/10/21 10:06:43;;;;;;;348.67;335.30;;;;;;;26.17;41.97;97047.63;4974654;28;102931;-69
2023/10/21 10:09:12;;;;;;;341.67;328.53;;;;;;;25.98;41.92;97040.84;4973746;28;104907;-69
2023/10/21 10:11:42;;;;;;;340.87;328.03;;;;;;;26.46;41.00;97045.63;4990712;28;103249;-64
2023/10/21 10:14:11;;;;;;;345.07;331.87;;;;;;;27.08;41.10;97037.16;4976000;28;103062;-64
2023/10/21 10:16:43;;;;;;;345.88;332.52;;;;;;;26.71;41.07;97029.69;4972828;28;103795;-63
2023/10/21 10:19:12;;;;;;;344.38;331.15;;;;;;;27.05;39.69;97025.78;5004364;28;104330;-63
2023/10/21 10:21:43;;;;;;;343.45;330.48;;;;;;;27.87;39.09;97028.16;4992529;28;103138;-63
2023/10/21 10:24:11;;;;;;;365.53;351.50;;;;;;;28.08;38.92;97023.72;4972866;28;103204;-64
2023/10/21 10:26:40;;;;;;;365.70;351.55;;;;;;;28.45;38.71;97015.50;4995888;28;103885;-69
2023/10/21 10:29:19;;;;;;;358.52;344.83;;;;;;;28.70;37.94;97023.78;4986155;28;103242;-69
2023/10/21 10:31:51;;;;;;;368.95;354.73;;;;;;;27.53;39.22;97034.94;4990014;28;103461;-69
2023/10/21 10:34:19;;;;;;;407.63;391.30;;;;;;;28.51;37.26;97028.03;4978207;28;104482;-69
2023/10/21 10:36:49;;;;;;;355.05;341.42;;;;;;;27.85;38.38;97030.31;4993099;28;104067;-69
2023/10/21 10:39:39;;;;;;;384.00;368.97;;;;;;;28.29;37.88;97021.94;4998814;28;104199;-69
2023/10/21 10:42:10;;;;;;;378.77;363.90;;;;;;;27.83;38.00;97039.78;4977111;28;103206;-69
2023/10/21 10:44:38;;;;;;;383.88;369.02;;;;;;;26.72;40.23;97039.47;4996602;28;102740;-69
2023/10/21 10:47:07;;;;;;;377.08;362.52;;;;;;;26.89;39.69;97037.50;4979220;28;104606;-63
2023/10/21 10:49:56;;;;;;;392.53;377.33;;;;;;;26.72;39.53;97050.28;4994018;28;103265;-64
2023/10/21 10:52:31;;;;;;;379.47;364.90;;;;;;;25.79;39.98;97051.09;4988938;28;103127;-65
2023/10/21 10:55:02;;;;;;;380.85;366.33;;;;;;;25.52;40.99;97047.38;4972429;28;102976;-63
2023/10/21 10:57:30;;;;;;;373.70;359.47;;;;;;;25.11;41.72;97050.41;4994822;28;103910;-63
2023/10/21 10:59:58;;;;;;;388.52;373.65;;;;;;;25.17;41.32;97052.16;4995800;28;103279;-64
2023/10/21 11:02:28;;;;;;;378.53;364.03;;;;;;;26.52;40.55;97049.19;4993761;28;103243;-63
2023/10/21 11:04:58;;;;;;;370.70;356.50;;;;;;;26.06;40.09;97045.81;4980200;28;103175;-69